Wednesday, August 15, 2018, 4:42 AM EDT
Back to Local

KLEB, Lebanon Municipal Airport

Location: Lebanon, NH, United States Lat: 43.633
Local Time: 4:42 AM EDT ( 8:42 GMT) Lon: -72.3
Time Zone: US/Eastern Elev: 597 ft

Show me the last for .
Show Decoded

2018-08-15 04:34 METAR KLEB 150834Z AUTO 00000KT 1 3/4SM BR OVC001 19/18 A2981 RMK AO2 T01940178
                 =
2018-08-15 03:53 METAR KLEB 150753Z AUTO 00000KT 8SM BKN001 19/17 A2982 RMK AO2 SLP086 T01940172
                 =
2018-08-15 03:23 METAR KLEB 150723Z AUTO 16003KT 8SM FEW001 SCT013 SCT120 19/17 A2982 RMK AO2
                 T01890172 =
2018-08-15 03:13 METAR KLEB 150713Z AUTO 18003KT 10SM FEW001 BKN013 BKN120 19/17 A2982 RMK AO2
                 T01940172 =
2018-08-15 02:53 METAR KLEB 150653Z AUTO 15003KT 8SM FEW001 FEW015 BKN120 19/17 A2982 RMK AO2
                 SLP089 T01890172 =
2018-08-15 02:32 METAR KLEB 150632Z AUTO 00000KT 8SM FEW001 19/17 A2982 RMK AO2 T01940172 =
2018-08-15 02:10 METAR KLEB 150610Z AUTO 18003KT 7SM SCT018 19/17 A2983 RMK AO2 T01940172 =
2018-08-15 01:53 METAR KLEB 150553Z AUTO 00000KT 9SM OVC019 19/17 A2983 RMK AO2 SLP088 T01940172
                 10233 20189 56006 =
2018-08-15 01:16 METAR KLEB 150516Z AUTO 00000KT 7SM BKN019 BKN120 19/17 A2984 RMK AO2 T01890172
                 =
2018-08-15 00:53 METAR KLEB 150453Z AUTO 00000KT 7SM BKN120 19/17 A2984 RMK AO2 SLP093 T01890172
                 402830189 =
2018-08-14 23:53 METAR KLEB 150353Z AUTO 00000KT 10SM CLR 19/18 A2983 RMK AO2 SLP091 T01940178 =
2018-08-14 22:53 METAR KLEB 150253Z AUTO 00000KT 10SM FEW001 SCT033 SCT120 19/18 A2984 RMK AO2
                 LTG DSNT SW AND W SLP095 T01940178 52009 =
2018-08-14 21:53 METAR KLEB 150153Z 00000KT 10SM CLR 20/18 A2983 RMK AO2 LTG DSNT SW AND W SLP092
                 T02000178 =
2018-08-14 20:53 METAR KLEB 150053Z 00000KT 10SM CLR 21/18 A2983 RMK AO2 SLP091 T02060183 =
2018-08-14 19:53 METAR KLEB 142353Z 15004KT 10SM CLR 23/18 A2982 RMK AO2 SLP086 T02330183 10278
                 20233 55000 =
2018-08-14 18:53 METAR KLEB 142253Z 00000KT 10SM CLR 26/19 A2980 RMK AO2 SLP080 T02610194 =
2018-08-14 17:53 METAR KLEB 142153Z VRB03KT 10SM CLR 26/20 A2981 RMK AO2 SLP084 T02610200 =
2018-08-14 16:53 METAR KLEB 142053Z 00000KT 10SM BKN060 27/21 A2982 RMK AO2 SLP086 T02670206
                 55014 =
2018-08-14 15:55 METAR KLEB 141955Z VRB03KT 10SM FEW055 FEW085 27/20 A2982 RMK AO2 T02720200 =
2018-08-14 15:53 METAR KLEB 141953Z 13003KT 10SM FEW055 FEW085 27/20 A2982 RMK AO2 SLP085
                 T02720200 =
2018-08-14 14:53 METAR KLEB 141853Z 18004KT 10SM CLR 27/20 A2984 RMK AO2 SLP093 T02720200 =
2018-08-14 13:53 METAR KLEB 141753Z 16006KT 10SM FEW031 FEW055 28/19 A2986 RMK AO2 SLP100
                 T02780189 10283 20222 58013 =
2018-08-14 12:53 METAR KLEB 141653Z 22006KT 10SM FEW050 27/19 A2987 RMK AO2 SLP103 T02720194 =
2018-08-14 11:53 METAR KLEB 141553Z 17004KT 10SM BKN049 26/20 A2989 RMK AO2 SLP110 T02610200 =
2018-08-14 10:53 METAR KLEB 141453Z 00000KT 10SM FEW011 SCT027 BKN040 25/20 A2990 RMK AO2 SLP114
                 T02500200 58005 =
2018-08-14 10:15 METAR KLEB 141415Z VRB03KT 10SM SCT022 OVC038 24/20 A2991 RMK AO2 T02390200 =
2018-08-14 10:00 METAR KLEB 141400Z 00000KT 10SM BKN022 OVC038 23/20 A2991 RMK AO2 T02330200 =
2018-08-14 09:53 METAR KLEB 141353Z 00000KT 10SM BR FEW020 SCT024 OVC036 23/20 A2991 RMK AO2
                 SLP119 T02330200 =
2018-08-14 09:04 METAR KLEB 141304Z 00000KT 10SM BR FEW002 OVC034 23/20 A2992 RMK AO2 T02280200 =
2018-08-14 08:53 METAR KLEB 141253Z 00000KT 5SM BR FEW002 BKN013 OVC034 23/20 A2992 RMK AO2
                 SLP120 T02280200 =
2018-08-14 08:38 METAR KLEB 141238Z 00000KT 5SM BR FEW004 BKN011 OVC028 22/20 A2991 RMK AO2
                 T02220200 =
2018-08-14 08:29 METAR KLEB 141229Z 00000KT 5SM BR FEW002 BKN029 OVC041 22/20 A2992 RMK AO2
                 T02220200 =
2018-08-14 08:11 METAR KLEB 141211Z 00000KT 5SM BR SCT010 BKN028 OVC041 22/20 A2992 RMK AO2
                 T02220200 =
2018-08-14 07:53 METAR KLEB 141153Z 00000KT 4SM BR BKN010 OVC028 22/19 A2991 RMK AO2 SLP120 60022
                 70044 T02220194 10222 20206 53001 =
2018-08-14 07:43 METAR KLEB 141143Z 04003KT 4SM BR BKN010 OVC029 22/19 A2991 RMK AO2 T02220194 =
2018-08-14 07:15 METAR KLEB 141115Z 00000KT 3SM BR BKN003 OVC025 22/19 A2991 RMK AO2 T02170194 =
2018-08-14 07:00 METAR KLEB 141100Z 00000KT 2SM BR BKN003 OVC025 21/19 A2991 RMK AO2 T02110194 =
2018-08-14 06:53 METAR KLEB 141053Z 00000KT 2SM BR BKN001 OVC025 22/19 A2991 RMK AO2 SLP119
                 T02170194 =
2018-08-14 06:45 METAR KLEB 141045Z 00000KT 2SM BR SCT001 OVC025 21/19 A2991 RMK AO2 T02110194 =
2018-08-14 06:02 METAR KLEB 141002Z 36003KT 2SM BR BKN001 BKN030 OVC046 21/19 A2990 RMK AO2
                 T02110189 =
2018-08-14 05:53 METAR KLEB 140953Z AUTO 00000KT 7SM BKN001 OVC046 21/19 A2990 RMK AO2 SLP116
                 T02060189 =
2018-08-14 04:53 METAR KLEB 140853Z AUTO 00000KT 7SM FEW001 OVC014 21/19 A2991 RMK AO2 SLP118
                 60022 T02110194 55006 =
2018-08-14 04:50 METAR KLEB 140850Z AUTO 00000KT 7SM FEW001 OVC014 21/19 A2991 RMK AO2 =

Support USWX by starting your Amazon purchase here.